createdAt,value
2023-03-07T00:08:37.250Z,5716.09082
2023-03-07T00:23:40.097Z,4988.54443
2023-03-07T00:38:42.612Z,4003.30103
2023-03-07T00:53:45.630Z,2798.71509
2023-03-07T01:08:48.401Z,1845.8335
2023-03-07T01:23:52.065Z,1011.61261
2023-03-07T01:38:55.144Z,373.96106
2023-03-07T01:53:57.640Z,64.72403
2023-03-07T02:09:00.429Z,4.79437
2023-03-07T02:24:03.403Z,0
2023-03-07T02:39:05.916Z,0
2023-03-07T02:54:08.648Z,0
2023-03-07T03:09:11.034Z,0
2023-03-07T03:24:13.850Z,0
2023-03-07T03:39:16.585Z,0
2023-03-07T03:54:19.259Z,0
2023-03-07T04:09:22.102Z,0
2023-03-07T04:24:24.828Z,0
2023-03-07T04:39:27.238Z,0
2023-03-07T04:54:29.588Z,0
2023-03-07T05:09:31.919Z,0
2023-03-07T05:24:34.207Z,0
2023-03-07T05:39:36.532Z,0
2023-03-07T05:54:38.864Z,0
2023-03-07T06:09:41.213Z,0
2023-03-07T06:24:43.586Z,0
2023-03-07T06:39:45.980Z,0
2023-03-07T06:54:48.375Z,0
2023-03-07T07:09:50.668Z,0
2023-03-07T07:24:52.956Z,0
2023-03-07T07:39:55.404Z,0
2023-03-07T07:54:57.691Z,0
2023-03-07T08:09:59.960Z,0
2023-03-07T08:25:02.302Z,0
2023-03-07T08:40:04.661Z,0
2023-03-07T08:55:06.931Z,0
2023-03-07T09:10:09.235Z,0
2023-03-07T09:25:11.712Z,0
2023-03-07T09:40:14.035Z,0
2023-03-07T09:55:16.385Z,0
2023-03-07T10:10:18.658Z,0
2023-03-07T10:25:20.940Z,0
2023-03-07T10:40:23.258Z,0
2023-03-07T10:55:25.576Z,0
2023-03-07T11:10:27.951Z,0
2023-03-07T11:25:30.290Z,0
2023-03-07T11:40:32.754Z,0
2023-03-07T11:55:36.105Z,0
2023-03-07T12:10:38.484Z,0
2023-03-07T12:25:40.865Z,0
2023-03-07T12:40:43.148Z,0
2023-03-07T12:55:45.458Z,0
2023-03-07T13:10:47.862Z,0
2023-03-07T13:25:50.178Z,0
2023-03-07T13:40:52.485Z,0
2023-03-07T13:55:54.839Z,4.79437
2023-03-07T14:10:57.185Z,62.32684
2023-03-07T14:25:59.490Z,296.05252
2023-03-07T14:41:01.811Z,680.8009
2023-03-07T14:56:04.281Z,1222.56506
2023-03-07T15:11:06.595Z,1964.49414
2023-03-07T15:26:08.900Z,2767.55151
2023-03-07T15:41:11.221Z,3745.60352
2023-03-07T15:56:13.556Z,5282.2002
2023-03-07T16:11:15.910Z,8056.94287
2023-03-07T16:26:18.271Z,9953.11719
2023-03-07T16:41:20.649Z,12098.59961
2023-03-07T16:56:22.991Z,16067.14062
2023-03-07T17:11:25.494Z,10657.89062
2023-03-07T17:26:27.826Z,10784.94141
2023-03-07T17:41:30.178Z,11242.80371
2023-03-07T17:56:32.495Z,13604.03223
2023-03-07T18:11:34.896Z,14908.10156
2023-03-07T18:26:37.203Z,13783.82129
2023-03-07T18:41:39.519Z,12967.5791
2023-03-07T18:56:41.878Z,15922.11133
2023-03-07T19:11:44.461Z,14819.40527
2023-03-07T19:26:46.763Z,22745.70117
2023-03-07T19:41:49.135Z,25503.66406
2023-03-07T19:56:51.564Z,23806.45703
2023-03-07T20:11:53.875Z,18211.42383
2023-03-07T20:26:56.176Z,17123.10156
2023-03-07T20:41:58.544Z,16129.46777
2023-03-07T20:57:00.865Z,14885.32812
2023-03-07T21:12:03.157Z,16340.41992
2023-03-07T21:27:05.494Z,18073.58594
2023-03-07T21:42:07.772Z,20516.31836
2023-03-07T21:57:10.137Z,15225.72852
2023-03-07T22:12:12.491Z,12625.98047
2023-03-07T22:27:14.784Z,10802.91992
2023-03-07T22:42:17.100Z,10120.9209
2023-03-07T22:57:19.377Z,10252.76562
2023-03-07T23:12:21.875Z,8065.33301
2023-03-07T23:27:24.230Z,6879.9248
2023-03-07T23:42:26.544Z,7605.07324
2023-03-07T23:57:28.943Z,6936.2583
